aviador You're here:

KDAN Decoded Metar

DANVILLE in VA, USA
Report Time2018-05-28 07:53:00
UTC Time2018-05-28 08:04:56
Flight Rules vfr VFR
WindCalm
Visibility9999 m
Phenomena:N/A
Clouds:N/A
CeilingNone
Temp20°C (ISA +6)
Dew Point20°C (100% RH)
QNH1016 hPa
Density Alt1,503 ft
Elevation574 ft
Report Wrong Elevation
Raw Report
METAR KDAN 280753Z AUTO 00000KT 10SM CLR 20/20 A3000 RMK AO2 SLP149
T02000200=

Extra information for KDAN:More info

Metar Taf Metar & Taf Last 4 Metars F.Rules Stats Wind Profile Meteogram Temp Stats Airport Information Weather charts Add Link Nearby VenuesMetar ALERT Operation Metar Decoded Social comments

AIRNAV info for KDAN